Leigh Creek Airport


Codes: YLEC/LGH
Name: Leigh Creek Airport
City:
Country: Australia
Elevation: 856 ft.

Photos at Leigh Creek Airport


   Photos courtesy of SpottingLog. You can add your own sightings and photos by signing up for a free trial today.



No photos found.

Weather at Leigh Creek Airport


Time (UTC)DescriptionTempratureWindCloud coverageVisibilityPressureHumidity
15-Apr-2024 18:00Clear Sky19°C4 mph, E0%10000m1023hPa30%
15-Apr-2024 21:00Clear Sky18°C4 mph, E0%10000m1023hPa32%
16-Apr-2024 00:00Clear Sky23°C4 mph, E0%10000m1024hPa22%
16-Apr-2024 03:00Clear Sky26°C0 mph, NE0%10000m1022hPa19%
16-Apr-2024 06:00Clear Sky27°C2 mph, SW0%10000m1020hPa19%
16-Apr-2024 09:00Clear Sky23°C4 mph, S1%10000m1022hPa26%
16-Apr-2024 12:00Clear Sky20°C4 mph, SE0%10000m1023hPa32%
16-Apr-2024 15:00Clear Sky19°C4 mph, S0%10000m1023hPa39%
16-Apr-2024 18:00Clear Sky18°C7 mph, SE0%10000m1022hPa39%
16-Apr-2024 21:00Clear Sky17°C13 mph, E0%10000m1023hPa48%
17-Apr-2024 00:00Clear Sky22°C13 mph, E0%10000m1024hPa33%
17-Apr-2024 03:00Clear Sky25°C7 mph, SE0%10000m1023hPa26%
17-Apr-2024 06:00Clear Sky26°C9 mph, SE0%10000m1021hPa25%
17-Apr-2024 09:00Clear Sky22°C11 mph, SE0%10000m1022hPa33%
17-Apr-2024 12:00Clear Sky20°C11 mph, SE0%10000m1024hPa40%
17-Apr-2024 15:00Clear Sky18°C16 mph, SE0%10000m1023hPa42%
17-Apr-2024 18:00Clear Sky16°C16 mph, SE0%10000m1023hPa46%
17-Apr-2024 21:00Clear Sky15°C9 mph, SE0%10000m1024hPa48%
18-Apr-2024 00:00Clear Sky20°C9 mph, SE0%10000m1025hPa33%
18-Apr-2024 03:00Clear Sky23°C11 mph, S0%10000m1023hPa23%
18-Apr-2024 06:00Clear Sky23°C16 mph, SW0%10000m1022hPa21%
18-Apr-2024 09:00Clear Sky20°C18 mph, SW0%10000m1023hPa32%
18-Apr-2024 12:00Scattered Clouds16°C9 mph, S25%10000m1024hPa52%
18-Apr-2024 15:00Broken Clouds16°C7 mph, SE84%10000m1023hPa45%
18-Apr-2024 18:00Scattered Clouds14°C7 mph, SE49%10000m1023hPa50%
18-Apr-2024 21:00Few Clouds12°C7 mph, SE19%10000m1024hPa64%
19-Apr-2024 00:00Scattered Clouds17°C7 mph, SE30%10000m1025hPa41%
19-Apr-2024 03:00Clear Sky22°C11 mph, S10%10000m1023hPa25%
19-Apr-2024 06:00Clear Sky22°C16 mph, S8%10000m1022hPa41%
19-Apr-2024 09:00Few Clouds19°C9 mph, SE19%10000m1023hPa47%
19-Apr-2024 12:00Clear Sky17°C4 mph, S10%10000m1025hPa57%
19-Apr-2024 15:00Clear Sky16°C11 mph, SE0%10000m1025hPa51%
19-Apr-2024 18:00Clear Sky14°C11 mph, SE0%10000m1025hPa47%
19-Apr-2024 21:00Clear Sky12°C7 mph, SE0%10000m1026hPa56%
20-Apr-2024 00:00Clear Sky17°C13 mph, SE0%10000m1027hPa40%
20-Apr-2024 03:00Clear Sky22°C13 mph, SE0%10000m1025hPa29%
20-Apr-2024 06:00Clear Sky23°C16 mph, SE0%10000m1024hPa24%
20-Apr-2024 09:00Clear Sky19°C9 mph, SE0%10000m1026hPa33%
20-Apr-2024 12:00Clear Sky17°C7 mph, SE0%10000m1027hPa39%
20-Apr-2024 15:00Clear Sky15°C7 mph, SE0%10000m1026hPa43%